METAR Data
IDs: Format: Raw Decoded Include TAF

Data at: 2103 UTC 20 Sep 2018

METAR for:KDLZ (Delaware Muni, OH, US)
Text:KDLZ 202055Z AUTO 18005KT 10SM SCT060 SCT070 BKN100 33/18 A3002 RMK AO2
Temperature: 33.0°C ( 91°F)
Dewpoint: 18.0°C ( 64°F) [RH = 41%]
Pressure (altimeter):30.02 inches Hg (1016.7 mb)
Winds:from the S (180 degrees) at 6 MPH (5 knots; 2.6 m/s)
Visibility:10 or more sm (16+ km)
Ceiling:10000 feet AGL
Clouds: scattered clouds at 6000 feet AGL, scattered clouds at 7000 feet AGL, broken clouds at 10000 feet AGL
QC Flag:automated observation with no human augmentation